Rothschild, Wisconsin
Current Conditions -  °F | °C
As of 10:54 PM on Monday 22 Dec 2014 (Local Time) from KAUW Reporting Station
Light Snow Light Snow  
Wind Chill: 22°   Ceiling: 900
Heat Index: 32°   Visibility: 2mi
Dew Point: 31°   Wind: 14mph
Humidity: 96%   Direction: 80°E
Pressure: 29.67"   Gusts: NA
Location:  44.89°N, 89.62°W
Report Text: KAUW 230454Z AUTO 08012KT 2SM -SN BR OVC009 00/M01 A2967 RMK AO2 CIG 006V013 SLP063 P0000 T00001006
Loading
Personal Weather Stations






























Interactive Weather Map New forecast layout! Learn more

10-Day Weather Forecast

Advertisements
Track Severe Weather on mobile